Seneca, SC (29672)

6:12 PM EDT on March 25, 2017 (GMT -0400)
KS4YX - Sunset Shores | | Change Station

Elev 919 ft 34.74 °N, 82.96 °W | Updated 2 minutes ago

Overcast
Overcast
70.9 °F
Feels Like 77 °F
N
0.0
Wind Variable Wind from WSW
Gusts 1.0 mph

Today
High -- | Low -- °F
--% Chance of Precip.
Yesterday
High -- | Low -- °F
Precip. -- in
Pressure 30.15 in
Visibility 10.0 miles
Clouds Overcast 6500 ft
Heat Index 77 °F
Dew Point 54 °F
Humidity 55%
Rainfall 0.00 in
Snow Depth Not available.
7:28 AM 7:47 PM
Waning Crescent, 6% visible
METAR KCEU 252154Z AUTO 17006KT 10SM OVC065 23/10 A3016 RMK AO2 SLP208 T02330100
Pressure 30.15 in
Visibility 10.0 miles
Clouds Overcast 6500 ft
Heat Index 77 °F
Dew Point 54 °F
Humidity 55%
Rainfall 0.00 in
Snow Depth Not available.
7:28 AM 7:47 PM
Waning Crescent, 6% visible
METAR KCEU 252154Z AUTO 17006KT 10SM OVC065 23/10 A3016 RMK AO2 SLP208 T02330100

Get Severe Weather Alerts

Thanks for signing up!

Be on the lookout for a verification email in your inbox.

You'll start receiving the daily forecast at 8 AM.

×

10-Day Weather Forecast

Almanac

Astronomy

Mar. 25, 2017 Rise Set
Actual Time
Civil Twilight
Nautical Twilight
Astronomical Twilight
Moon
Length of Visible Light
Length of Day
Tomorrow will be .
, % of the Moon is Illuminated

Today's Extremes

State Highs State Lows

Community

WunderPhotos

Upload Photos

1,962,540 photos uploaded!

WunderBlog® & News

Nearby

Air Quality

  Air Quality AQ Index Pollutant
Not available.

Snow Depth

Station Depth Elevation

Earthquake Activity

City Distance Mag. Time & Date
Minimum magnitude displayed is 2.5.

Earthquake Activity

City Distance Mag. Time & Date
Minimum magnitude displayed is 2.5.

Coastal Water Temperatures

Place Temperature

Stations

Nearby Weather Stations

Station Location Temp. Windchill Dew Point Humidity Wind Precip. Elev Updated Type
                   

Watches & Warnings

There are currently no watches in effect.